createdAt,value
2023-05-09T00:01:14.771Z,100374.69
2023-05-09T00:02:18.857Z,100372.13
2023-05-09T00:03:22.949Z,100372.13
2023-05-09T00:04:27.520Z,100370.50
2023-05-09T00:05:31.424Z,100368.81
2023-05-09T00:06:35.647Z,100370.66
2023-05-09T00:07:40.297Z,100371.59
2023-05-09T00:08:44.866Z,100369.13
2023-05-09T00:09:49.085Z,100372.78
2023-05-09T00:10:56.214Z,100358.56
2023-05-09T00:12:00.289Z,100367.25
2023-05-09T00:13:04.815Z,100365.44
2023-05-09T00:14:14.055Z,100366.56
2023-05-09T00:15:19.199Z,100363.13
2023-05-09T00:16:24.472Z,100365.88
2023-05-09T00:17:28.867Z,100361.81
2023-05-09T00:18:34.162Z,100361.72
2023-05-09T00:19:39.265Z,100361.75
2023-05-09T00:20:44.804Z,100360.91
2023-05-09T00:21:49.641Z,100364.69
2023-05-09T00:22:53.746Z,100361.16
2023-05-09T00:24:01.281Z,100359.31
2023-05-09T00:25:11.738Z,100363.06
2023-05-09T00:26:17.027Z,100360.41
2023-05-09T00:27:21.705Z,100353.25
2023-05-09T00:28:25.469Z,100352.41
2023-05-09T00:29:29.203Z,100356.91
2023-05-09T00:30:34.855Z,100351.81
2023-05-09T00:31:40.127Z,100354.50
2023-05-09T00:32:44.167Z,100355.44
2023-05-09T00:33:56.820Z,100359.25
2023-05-09T00:35:08.007Z,100354.09
2023-05-09T00:36:22.453Z,100349.78
2023-05-09T00:37:26.937Z,100353.28
2023-05-09T00:38:37.037Z,100352.47
2023-05-09T00:39:41.092Z,100355.06
2023-05-09T00:40:45.894Z,100350.75
2023-05-09T00:41:49.975Z,100355.25
2023-05-09T00:42:53.910Z,100352.63
2023-05-09T00:44:01.757Z,100349.97
2023-05-09T00:45:10.404Z,100351.75
2023-05-09T00:46:14.567Z,100347.50
2023-05-09T00:47:18.945Z,100343.31
2023-05-09T00:48:23.297Z,100347.72
2023-05-09T00:49:27.668Z,100345.94
2023-05-09T00:50:32.083Z,100348.78
2023-05-09T00:51:38.879Z,100347.00
2023-05-09T00:52:43.130Z,100343.38
2023-05-09T00:53:47.375Z,100348.66
2023-05-09T00:54:56.894Z,100346.16
2023-05-09T00:56:01.066Z,100341.75
2023-05-09T00:57:08.482Z,100340.00
2023-05-09T00:58:13.763Z,100345.44
2023-05-09T00:59:21.081Z,100350.66
2023-05-09T01:00:25.697Z,100343.66
2023-05-09T01:01:30.325Z,100342.00
2023-05-09T01:02:35.320Z,100345.44
2023-05-09T01:03:42.051Z,100347.31
2023-05-09T01:04:47.431Z,100346.53
2023-05-09T01:06:42.178Z,100341.31
2023-05-09T01:08:13.471Z,100348.38
2023-05-09T01:09:44.241Z,100344.06
2023-05-09T01:11:30.517Z,100350.56
2023-05-09T01:13:10.889Z,100349.06
2023-05-09T01:14:36.719Z,100353.63
2023-05-09T01:16:08.921Z,100341.38
2023-05-09T01:17:31.334Z,100349.34
2023-05-09T01:18:51.935Z,100345.69
2023-05-09T01:20:14.860Z,100344.06
2023-05-09T01:21:29.366Z,100344.19
2023-05-09T01:22:36.842Z,100349.63
2023-05-09T01:24:17.700Z,100352.22
2023-05-09T01:26:03.419Z,100330.44
2023-05-09T01:27:45.417Z,100343.84
2023-05-09T01:29:21.568Z,100332.44
2023-05-09T01:30:27.753Z,100341.22
2023-05-09T01:31:36.979Z,100336.84
2023-05-09T01:32:46.952Z,100340.28
2023-05-09T01:34:09.221Z,100334.25
2023-05-09T01:35:16.409Z,100333.38
2023-05-09T01:36:23.127Z,100332.50
2023-05-09T01:37:38.311Z,100333.34
2023-05-09T01:38:45.033Z,100330.81
2023-05-09T01:39:53.954Z,100331.59
2023-05-09T01:41:00.991Z,100338.78
2023-05-09T01:42:09.102Z,100329.94
2023-05-09T01:43:19.523Z,100330.88
2023-05-09T01:44:25.934Z,100335.50
2023-05-09T01:45:31.511Z,100338.94
2023-05-09T01:46:37.361Z,100342.56
2023-05-09T01:47:46.128Z,100333.84
2023-05-09T01:48:53.729Z,100338.13
2023-05-09T01:49:58.046Z,100327.66
2023-05-09T01:51:04.275Z,100332.13
2023-05-09T01:52:17.201Z,100331.50
2023-05-09T01:53:24.856Z,100322.22
2023-05-09T01:54:30.916Z,100323.94
2023-05-09T01:55:39.958Z,100320.50
2023-05-09T01:56:45.788Z,100326.34
2023-05-09T01:57:51.117Z,100327.28
2023-05-09T01:58:58.820Z,100332.56
2023-05-09T02:00:08.119Z,100332.56
2023-05-09T02:01:16.538Z,100334.50
2023-05-09T02:02:21.918Z,100329.41
2023-05-09T02:03:27.028Z,100333.75
2023-05-09T02:04:32.590Z,100331.09
2023-05-09T02:05:37.939Z,100339.88
2023-05-09T02:06:44.934Z,100333.69
2023-05-09T02:07:50.242Z,100325.94
2023-05-09T02:08:54.288Z,100325.91
2023-05-09T02:10:00.842Z,100321.50
2023-05-09T02:11:05.684Z,100326.78
2023-05-09T02:12:10.154Z,100318.88
2023-05-09T02:13:14.273Z,100316.19
2023-05-09T02:14:18.442Z,100319.72
2023-05-09T02:15:23.302Z,100322.34
2023-05-09T02:16:28.818Z,100323.25
2023-05-09T02:17:32.935Z,100319.63
2023-05-09T02:18:37.418Z,100320.50
2023-05-09T02:19:41.252Z,100325.91
2023-05-09T02:20:45.334Z,100319.78
2023-05-09T02:21:52.271Z,100320.63
2023-05-09T02:22:56.322Z,100321.63
2023-05-09T02:24:00.795Z,100317.97
2023-05-09T02:25:10.005Z,100325.00
2023-05-09T02:26:15.334Z,100319.00
2023-05-09T02:27:20.905Z,100321.75
2023-05-09T02:28:30.631Z,100318.22
2023-05-09T02:29:44.702Z,100325.28
2023-05-09T02:30:54.092Z,100323.56
2023-05-09T02:32:00.674Z,100313.00
2023-05-09T02:33:10.875Z,100320.06
2023-05-09T02:34:15.422Z,100321.13
2023-05-09T02:35:22.027Z,100317.69
2023-05-09T02:36:28.220Z,100319.31
2023-05-09T02:37:34.339Z,100319.41
2023-05-09T02:38:38.318Z,100315.84
2023-05-09T02:39:42.784Z,100322.97
2023-05-09T02:40:50.903Z,100317.91
2023-05-09T02:41:56.113Z,100325.13
2023-05-09T02:43:01.124Z,100324.09
2023-05-09T02:44:05.555Z,100322.38
2023-05-09T02:45:11.298Z,100319.66
2023-05-09T02:46:16.642Z,100318.09
2023-05-09T02:47:21.649Z,100318.00
2023-05-09T02:48:26.056Z,100321.59
2023-05-09T02:49:32.499Z,100318.09
2023-05-09T02:50:39.735Z,100313.09
2023-05-09T02:51:43.746Z,100318.34
2023-05-09T02:52:47.785Z,100319.19
2023-05-09T02:53:52.496Z,100318.22
2023-05-09T02:55:00.708Z,100320.91
2023-05-09T02:56:04.828Z,100314.00
2023-05-09T02:57:08.878Z,100315.84
2023-05-09T02:58:16.392Z,100323.81
2023-05-09T02:59:20.504Z,100320.25
2023-05-09T03:00:26.280Z,100320.97
2023-05-09T03:01:31.476Z,100322.63
2023-05-09T03:02:36.982Z,100325.25
2023-05-09T03:03:41.527Z,100321.81
2023-05-09T03:04:46.922Z,100320.97
2023-05-09T03:05:51.201Z,100324.41
2023-05-09T03:06:55.332Z,100316.38
2023-05-09T03:07:58.961Z,100321.81
2023-05-09T03:09:06.445Z,100325.31
2023-05-09T03:10:13.753Z,100325.25
2023-05-09T03:11:17.707Z,100320.13
2023-05-09T03:12:22.456Z,100320.09
2023-05-09T03:13:27.156Z,100320.97
2023-05-09T03:14:31.528Z,100325.25
2023-05-09T03:15:35.205Z,100318.28
2023-05-09T03:16:39.173Z,100326.25
2023-05-09T03:17:42.795Z,100321.00
2023-05-09T03:18:46.768Z,100318.34
2023-05-09T03:19:51.480Z,100320.06
2023-05-09T03:20:55.314Z,100321.97
2023-05-09T03:21:58.867Z,100325.53
2023-05-09T03:23:02.745Z,100322.78
2023-05-09T03:24:08.250Z,100327.19
2023-05-09T03:25:12.337Z,100330.03
2023-05-09T03:26:16.248Z,100328.31
2023-05-09T03:27:20.582Z,100325.59
2023-05-09T03:28:24.374Z,100314.19
2023-05-09T03:29:28.250Z,100326.50
2023-05-09T03:30:32.818Z,100319.47
2023-05-09T03:31:36.562Z,100320.66
2023-05-09T03:32:43.584Z,100326.63
2023-05-09T03:33:47.582Z,100325.66
2023-05-09T03:34:51.984Z,100327.56
2023-05-09T03:35:56.532Z,100322.28
2023-05-09T03:37:01.729Z,100326.72
2023-05-09T03:38:05.842Z,100324.09
2023-05-09T03:39:13.382Z,100320.44
2023-05-09T03:40:18.548Z,100333.78
2023-05-09T03:41:26.343Z,100323.09
2023-05-09T03:42:30.389Z,100324.09
2023-05-09T03:43:34.267Z,100323.22
2023-05-09T03:44:38.881Z,100326.72
2023-05-09T03:45:43.779Z,100325.84
2023-05-09T03:46:47.959Z,100324.97
2023-05-09T03:47:52.766Z,100322.34
2023-05-09T03:48:57.170Z,100327.56
2023-05-09T03:50:02.386Z,100324.94
2023-05-09T03:51:06.457Z,100330.25
2023-05-09T03:52:11.068Z,100331.13
2023-05-09T03:53:14.845Z,100332.06
2023-05-09T03:54:18.802Z,100327.63
2023-05-09T03:55:24.256Z,100333.69
2023-05-09T03:56:30.656Z,100334.41
2023-05-09T03:57:36.133Z,100328.22
2023-05-09T03:58:43.214Z,100335.22
2023-05-09T03:59:47.248Z,100332.50
2023-05-09T04:00:51.659Z,100330.66
2023-05-09T04:01:55.837Z,100329.69
2023-05-09T04:03:00.677Z,100324.56
2023-05-09T04:04:08.033Z,100331.47
2023-05-09T04:05:12.668Z,100329.56
2023-05-09T04:06:17.292Z,100332.00
2023-05-09T04:07:21.089Z,100331.94
2023-05-09T04:08:25.299Z,100336.22
2023-05-09T04:09:29.303Z,100329.88
2023-05-09T04:10:33.591Z,100324.59
2023-05-09T04:11:44.289Z,100326.19
2023-05-09T04:12:48.395Z,100329.66
2023-05-09T04:13:52.532Z,100331.19
2023-05-09T04:14:56.686Z,100324.13
2023-05-09T04:16:00.871Z,100320.66
2023-05-09T04:17:05.683Z,100320.63
2023-05-09T04:18:09.562Z,100325.91
2023-05-09T04:19:13.748Z,100325.97
2023-05-09T04:20:18.431Z,100325.97
2023-05-09T04:21:22.084Z,100326.69
2023-05-09T04:22:27.849Z,100324.97
2023-05-09T04:23:34.740Z,100325.78
2023-05-09T04:24:38.931Z,100316.03
2023-05-09T04:25:42.800Z,100319.44
2023-05-09T04:26:46.886Z,100322.84
2023-05-09T04:27:51.825Z,100325.50
2023-05-09T04:28:55.977Z,100322.84
2023-05-09T04:30:00.577Z,100323.72
2023-05-09T04:31:04.507Z,100320.00
2023-05-09T04:32:09.074Z,100327.88
2023-05-09T04:33:15.645Z,100329.50
2023-05-09T04:34:19.978Z,100325.09
2023-05-09T04:35:24.260Z,100323.28
2023-05-09T04:36:28.116Z,100322.25
2023-05-09T04:37:33.259Z,100322.16
2023-05-09T04:38:36.973Z,100327.25
2023-05-09T04:39:41.037Z,100316.47
2023-05-09T04:40:45.640Z,100316.47
2023-05-09T04:41:50.356Z,100317.16
2023-05-09T04:42:57.455Z,100319.66
2023-05-09T04:44:02.152Z,100321.22
2023-05-09T04:45:08.538Z,100320.50
2023-05-09T04:46:13.011Z,100318.59
2023-05-09T04:47:17.430Z,100322.00
2023-05-09T04:48:21.650Z,100322.84
2023-05-09T04:49:26.138Z,100319.00
2023-05-09T04:50:31.432Z,100322.28
2023-05-09T04:51:35.540Z,100323.06
2023-05-09T04:52:39.171Z,100323.63
2023-05-09T04:53:45.042Z,100323.47
2023-05-09T04:54:51.064Z,100320.53
2023-05-09T04:55:55.185Z,100321.78
2023-05-09T04:57:09.970Z,100326.81
2023-05-09T04:58:30.075Z,100319.06
2023-05-09T04:59:34.026Z,100324.63
2023-05-09T05:00:38.103Z,100324.94
2023-05-09T05:01:42.409Z,100327.97
2023-05-09T05:02:46.910Z,100318.50
2023-05-09T05:03:51.374Z,100327.69
2023-05-09T05:05:10.136Z,100329.72
2023-05-09T05:06:15.604Z,100317.59
2023-05-09T05:07:19.833Z,100325.84
2023-05-09T05:08:23.936Z,100315.78
2023-05-09T05:09:30.390Z,100309.78
2023-05-09T05:10:36.864Z,100320.47
2023-05-09T05:11:47.741Z,100311.22
2023-05-09T05:13:01.576Z,100301.50
2023-05-09T05:14:08.200Z,100303.75
2023-05-09T05:15:13.129Z,100305.56
2023-05-09T05:16:17.375Z,100307.38
2023-05-09T05:17:22.083Z,100305.06
2023-05-09T05:18:25.756Z,100304.31
2023-05-09T05:19:29.702Z,100306.16
2023-05-09T05:20:34.420Z,100307.00
2023-05-09T05:21:38.104Z,100309.88
2023-05-09T05:22:41.803Z,100307.53
2023-05-09T05:23:45.629Z,100302.97
2023-05-09T05:24:49.907Z,100304.66
2023-05-09T05:25:53.797Z,100298.94
2023-05-09T05:26:57.394Z,100305.88
2023-05-09T05:28:01.472Z,100308.63
2023-05-09T05:29:05.354Z,100305.72
2023-05-09T05:30:10.095Z,100304.16
2023-05-09T05:31:15.585Z,100305.97
2023-05-09T05:32:20.802Z,100306.72
2023-05-09T05:33:27.713Z,100302.16
2023-05-09T05:34:31.544Z,100306.78
2023-05-09T05:35:35.792Z,100303.38
2023-05-09T05:36:40.348Z,100307.69
2023-05-09T05:37:49.054Z,100304.66
2023-05-09T05:38:52.917Z,100311.91
2023-05-09T05:39:57.294Z,100307.00
2023-05-09T05:41:01.453Z,100299.56
2023-05-09T05:42:05.663Z,100305.00
2023-05-09T05:43:10.210Z,100295.59
2023-05-09T05:44:14.406Z,100301.69
2023-05-09T05:45:18.338Z,100288.28
2023-05-09T05:46:23.966Z,100297.59
2023-05-09T05:47:29.522Z,100290.47
2023-05-09T05:48:34.678Z,100291.94
2023-05-09T05:49:39.044Z,100295.38
2023-05-09T05:50:43.053Z,100291.28
2023-05-09T05:51:47.567Z,100295.25
2023-05-09T05:52:51.907Z,100292.38
2023-05-09T05:53:55.998Z,100295.34
2023-05-09T05:55:00.217Z,100291.63
2023-05-09T05:56:04.721Z,100290.34
2023-05-09T05:57:09.640Z,100297.81
2023-05-09T05:58:13.440Z,100294.66
2023-05-09T05:59:17.435Z,100291.81
2023-05-09T06:00:22.062Z,100302.91
2023-05-09T06:01:26.837Z,100291.75
2023-05-09T06:02:31.090Z,100293.38
2023-05-09T06:03:35.264Z,100291.91
2023-05-09T06:04:39.142Z,100291.25
2023-05-09T06:05:48.760Z,100289.72
2023-05-09T06:06:52.611Z,100292.09
2023-05-09T06:07:57.329Z,100299.47
2023-05-09T06:09:03.787Z,100285.69
2023-05-09T06:10:16.057Z,100283.22
2023-05-09T06:11:20.143Z,100289.00
2023-05-09T06:12:26.668Z,100289.97
2023-05-09T06:13:32.232Z,100286.97
2023-05-09T06:14:36.540Z,100286.75
2023-05-09T06:15:41.448Z,100292.81
2023-05-09T06:16:46.330Z,100292.41
2023-05-09T06:17:52.819Z,100295.69
2023-05-09T06:18:58.478Z,100288.09
2023-05-09T06:20:02.488Z,100284.91
2023-05-09T06:21:11.528Z,100285.22
2023-05-09T06:22:17.433Z,100286.31
2023-05-09T06:23:22.838Z,100285.03
2023-05-09T06:24:35.663Z,100281.16
2023-05-09T06:25:43.918Z,100285.22
2023-05-09T06:26:50.851Z,100277.31
2023-05-09T06:27:54.664Z,100283.38
2023-05-09T06:28:58.876Z,100273.19
2023-05-09T06:30:14.087Z,100276.81
2023-05-09T06:31:27.884Z,100269.06
2023-05-09T06:32:34.919Z,100288.06
2023-05-09T06:33:38.950Z,100287.63
2023-05-09T06:34:42.633Z,100272.91
2023-05-09T06:35:47.393Z,100281.28
2023-05-09T06:36:51.366Z,100283.69
2023-05-09T06:37:55.269Z,100276.81
2023-05-09T06:39:00.153Z,100277.09
2023-05-09T06:40:04.614Z,100281.75
2023-05-09T06:41:11.359Z,100276.28
2023-05-09T06:42:15.785Z,100279.47
2023-05-09T06:43:29.600Z,100272.41
2023-05-09T06:44:33.513Z,100274.69
2023-05-09T06:45:37.525Z,100278.34
2023-05-09T06:46:48.199Z,100274.69
2023-05-09T06:47:52.517Z,100266.88
2023-05-09T06:48:56.729Z,100272.25
2023-05-09T06:50:00.699Z,100263.31
2023-05-09T06:51:05.287Z,100268.16
2023-05-09T06:52:13.359Z,100267.75
2023-05-09T06:53:22.681Z,100268.25
2023-05-09T06:54:26.648Z,100261.13
2023-05-09T06:55:30.784Z,100265.13
2023-05-09T06:56:34.863Z,100262.75
2023-05-09T06:57:41.110Z,100256.50
2023-05-09T06:58:44.896Z,100255.38
2023-05-09T06:59:48.893Z,100253.47
2023-05-09T07:00:57.193Z,100250.38
2023-05-09T07:02:00.990Z,100254.78
2023-05-09T07:03:07.999Z,100257.72
2023-05-09T07:04:11.807Z,100252.63
2023-05-09T07:05:16.599Z,100254.22
2023-05-09T07:06:20.779Z,100252.28
2023-05-09T07:07:24.962Z,100253.22
2023-05-09T07:08:28.926Z,100251.94
2023-05-09T07:09:32.878Z,100243.13
2023-05-09T07:10:38.803Z,100259.31
2023-05-09T07:11:42.768Z,100247.38
2023-05-09T07:12:47.306Z,100246.09
2023-05-09T07:13:51.634Z,100243.81
2023-05-09T07:14:55.486Z,100248.88
2023-05-09T07:15:59.295Z,100236.53
2023-05-09T07:17:21.148Z,100233.47
2023-05-09T07:18:27.381Z,100236.16
2023-05-09T07:19:31.338Z,100231.75
2023-05-09T07:20:35.026Z,100229.38
2023-05-09T07:21:38.797Z,100222.63
2023-05-09T07:22:42.890Z,100218.28
2023-05-09T07:23:46.870Z,100221.25
2023-05-09T07:24:51.265Z,100228.19
2023-05-09T07:25:59.106Z,100235.84
2023-05-09T07:27:06.446Z,100229.97
2023-05-09T07:28:12.770Z,100220.34
2023-05-09T07:29:18.512Z,100218.69
2023-05-09T07:30:22.530Z,100210.53
2023-05-09T07:31:26.420Z,100208.81
2023-05-09T07:32:38.159Z,100220.28
2023-05-09T07:33:42.810Z,100206.97
2023-05-09T07:34:47.833Z,100203.75
2023-05-09T07:35:53.300Z,100208.03
2023-05-09T07:36:58.900Z,100206.03
2023-05-09T07:38:02.985Z,100202.84
2023-05-09T07:39:08.332Z,100206.59
2023-05-09T07:40:13.126Z,100207.97
2023-05-09T07:41:18.020Z,100197.25
2023-05-09T07:42:23.125Z,100204.09
2023-05-09T07:43:27.430Z,100207.03
2023-05-09T07:44:31.956Z,100218.06
2023-05-09T07:45:36.791Z,100205.50
2023-05-09T07:46:42.571Z,100202.44
2023-05-09T07:47:47.107Z,100198.88
2023-05-09T07:48:51.023Z,100199.22
2023-05-09T07:49:54.878Z,100199.16
2023-05-09T07:50:58.873Z,100188.56
2023-05-09T07:52:03.655Z,100192.38
2023-05-09T07:53:09.324Z,100189.69
2023-05-09T07:54:13.201Z,100189.38
2023-05-09T07:55:17.216Z,100184.97
2023-05-09T07:56:22.788Z,100188.34
2023-05-09T07:57:29.827Z,100186.91
2023-05-09T07:58:33.841Z,100169.81
2023-05-09T07:59:38.654Z,100177.81
2023-05-09T08:00:43.297Z,100175.03
2023-05-09T08:01:48.007Z,100174.81
2023-05-09T08:02:53.469Z,100184.25
2023-05-09T08:03:58.014Z,100190.88
2023-05-09T08:05:05.569Z,100178.06
2023-05-09T08:06:16.028Z,100205.00
2023-05-09T08:07:19.861Z,100179.38
2023-05-09T08:08:24.754Z,100180.41
2023-05-09T08:09:29.443Z,100202.09
2023-05-09T08:10:34.203Z,100179.47
2023-05-09T08:11:38.482Z,100172.09
2023-05-09T08:12:42.369Z,100173.78
2023-05-09T08:13:47.098Z,100168.59
2023-05-09T08:14:51.426Z,100166.19
2023-05-09T08:15:55.357Z,100173.25
2023-05-09T08:16:59.669Z,100174.06
2023-05-09T08:18:04.265Z,100180.22
2023-05-09T08:19:08.476Z,100167.16
2023-05-09T08:20:14.256Z,100168.47
2023-05-09T08:21:22.294Z,100174.25
2023-05-09T08:22:26.853Z,100153.69
2023-05-09T08:23:30.982Z,100181.25
2023-05-09T08:24:35.427Z,100161.03
2023-05-09T08:25:41.626Z,100157.47
2023-05-09T08:26:46.059Z,100160.81
2023-05-09T08:27:53.065Z,100155.25
2023-05-09T08:28:57.520Z,100154.88
2023-05-09T08:30:01.973Z,100159.88
2023-05-09T08:31:05.902Z,100141.81
2023-05-09T08:32:10.294Z,100145.50
2023-05-09T08:33:17.463Z,100152.75
2023-05-09T08:34:21.576Z,100160.13
2023-05-09T08:35:28.696Z,100149.84
2023-05-09T08:36:32.913Z,100157.09
2023-05-09T08:37:37.489Z,100150.72
2023-05-09T08:38:41.811Z,100133.44
2023-05-09T08:39:46.989Z,100134.72
2023-05-09T08:41:00.436Z,100151.84
2023-05-09T08:42:04.773Z,100138.16
2023-05-09T08:43:09.007Z,100140.31
2023-05-09T08:44:13.908Z,100140.53
2023-05-09T08:45:26.494Z,100146.38
2023-05-09T08:46:39.330Z,100162.97
2023-05-09T08:47:45.876Z,100139.66
2023-05-09T08:48:51.701Z,100138.38
2023-05-09T08:49:56.351Z,100147.22
2023-05-09T08:51:01.922Z,100139.50
2023-05-09T08:52:06.383Z,100186.84
2023-05-09T08:53:12.409Z,100152.94
2023-05-09T08:54:17.372Z,100155.69
2023-05-09T08:55:22.252Z,100149.53
2023-05-09T08:56:30.435Z,100140.63
2023-05-09T08:57:38.020Z,100154.50
2023-05-09T08:58:43.617Z,100144.25
2023-05-09T08:59:50.351Z,100153.72
2023-05-09T09:00:58.026Z,100157.69
2023-05-09T09:02:08.209Z,100140.91
2023-05-09T09:03:13.157Z,100135.69
2023-05-09T09:04:20.856Z,100146.28
2023-05-09T09:05:40.703Z,100135.41
2023-05-09T09:06:47.349Z,100130.09
2023-05-09T09:07:52.340Z,100137.44
2023-05-09T09:09:00.172Z,100146.56
2023-05-09T09:10:06.110Z,100144.50
2023-05-09T09:11:15.221Z,100139.28
2023-05-09T09:12:26.781Z,100145.97
2023-05-09T09:13:32.163Z,100138.66
2023-05-09T09:14:41.556Z,100143.88
2023-05-09T09:15:48.277Z,100140.81
2023-05-09T09:16:54.738Z,100127.00
2023-05-09T09:18:09.528Z,100133.25
2023-05-09T09:19:17.802Z,100112.03
2023-05-09T09:20:27.266Z,100133.41
2023-05-09T09:21:33.900Z,100120.34
2023-05-09T09:22:43.378Z,100112.94
2023-05-09T09:23:49.554Z,100120.50
2023-05-09T09:24:53.876Z,100114.06
2023-05-09T09:26:00.343Z,100120.63
2023-05-09T09:27:08.319Z,100105.03
2023-05-09T09:28:12.787Z,100117.38
2023-05-09T09:29:20.697Z,100111.75
2023-05-09T09:30:26.508Z,100116.63
2023-05-09T09:31:33.823Z,100118.06
2023-05-09T09:32:40.245Z,100112.97
2023-05-09T09:33:44.684Z,100109.41
2023-05-09T09:34:52.775Z,100112.59
2023-05-09T09:35:59.748Z,100106.97
2023-05-09T09:37:08.056Z,100113.44
2023-05-09T09:38:12.408Z,100093.47
2023-05-09T09:39:17.619Z,100103.22
2023-05-09T09:40:26.722Z,100094.31
2023-05-09T09:41:35.854Z,100102.63
2023-05-09T09:42:49.480Z,100108.69
2023-05-09T09:43:53.739Z,100101.91
2023-05-09T09:45:03.876Z,100117.59
2023-05-09T09:46:10.019Z,100107.50
2023-05-09T09:47:14.969Z,100111.00
2023-05-09T09:48:19.438Z,100090.78
2023-05-09T09:49:26.943Z,100099.19
2023-05-09T09:50:32.673Z,100100.78
2023-05-09T09:51:36.880Z,100091.28
2023-05-09T09:52:51.744Z,100093.59
2023-05-09T09:53:57.745Z,100100.06
2023-05-09T09:55:05.268Z,100089.44
2023-05-09T09:56:09.989Z,100097.84
2023-05-09T09:57:37.721Z,100094.34
2023-05-09T09:58:42.951Z,100097.47
2023-05-09T09:59:59.985Z,100096.00
2023-05-09T10:01:09.697Z,100089.81
2023-05-09T10:02:14.055Z,100097.25
2023-05-09T10:03:18.068Z,100092.97
2023-05-09T10:04:22.847Z,100107.34
2023-05-09T10:05:31.881Z,100088.72
2023-05-09T10:06:35.833Z,100081.78
2023-05-09T10:07:40.179Z,100086.66
2023-05-09T10:08:49.585Z,100092.75
2023-05-09T10:09:54.102Z,100091.50
2023-05-09T10:11:00.076Z,100088.34
2023-05-09T10:12:09.101Z,100091.88
2023-05-09T10:13:14.113Z,100088.34
2023-05-09T10:14:21.824Z,100081.53
2023-05-09T10:15:28.728Z,100091.28
2023-05-09T10:16:43.541Z,100091.28
2023-05-09T10:17:56.861Z,100099.81
2023-05-09T10:19:01.085Z,100087.75
2023-05-09T10:20:08.532Z,100087.97
2023-05-09T10:21:16.080Z,100092.00
2023-05-09T10:22:25.054Z,100098.81
2023-05-09T10:23:33.147Z,100086.25
2023-05-09T10:25:05.967Z,100089.78
2023-05-09T10:26:29.189Z,100083.22
2023-05-09T10:27:36.991Z,100080.41
2023-05-09T10:28:45.207Z,100084.94
2023-05-09T10:30:11.491Z,100084.56
2023-05-09T10:31:28.097Z,100102.00
2023-05-09T10:32:39.713Z,100086.16
2023-05-09T10:33:51.573Z,100085.91
2023-05-09T10:35:05.325Z,100081.88
2023-05-09T10:36:10.868Z,100084.16
2023-05-09T10:37:17.007Z,100092.97
2023-05-09T10:38:22.262Z,100081.25
2023-05-09T10:39:28.111Z,100093.94
2023-05-09T10:40:34.588Z,100090.28
2023-05-09T10:41:41.752Z,100088.72
2023-05-09T10:42:47.997Z,100083.84
2023-05-09T10:43:53.128Z,100082.28
2023-05-09T10:44:58.141Z,100074.56
2023-05-09T10:46:04.863Z,100072.13
2023-05-09T10:47:10.154Z,100074.81
2023-05-09T10:48:14.885Z,100073.22
2023-05-09T10:49:20.591Z,100076.91
2023-05-09T10:50:29.655Z,100077.16
2023-05-09T10:51:34.156Z,100046.06
2023-05-09T10:53:09.014Z,100040.34
2023-05-09T10:54:33.771Z,100052.66
2023-05-09T10:55:48.385Z,100044.34
2023-05-09T10:56:52.188Z,100055.56
2023-05-09T10:57:56.220Z,100060.31
2023-05-09T10:59:01.347Z,100053.88
2023-05-09T11:00:06.843Z,100044.00
2023-05-09T11:01:11.256Z,100049.09
2023-05-09T11:02:21.256Z,100054.31
2023-05-09T11:03:28.323Z,100051.31
2023-05-09T11:04:36.574Z,100054.72
2023-05-09T11:05:41.066Z,100061.78
2023-05-09T11:06:55.757Z,100042.75
2023-05-09T11:08:31.310Z,100048.84
2023-05-09T11:09:38.269Z,100042.84
2023-05-09T11:10:45.206Z,100049.28
2023-05-09T11:11:55.127Z,100043.41
2023-05-09T11:13:01.916Z,100039.22
2023-05-09T11:14:06.069Z,100035.56
2023-05-09T11:15:14.678Z,100033.88
2023-05-09T11:16:19.282Z,100035.81
2023-05-09T11:17:23.247Z,100031.91
2023-05-09T11:18:29.329Z,100043.47
2023-05-09T11:20:02.219Z,100039.59
2023-05-09T11:21:12.557Z,100035.50
2023-05-09T11:22:28.386Z,100031.22
2023-05-09T11:23:33.450Z,100021.47
2023-05-09T11:24:39.237Z,100020.59
2023-05-09T11:25:47.040Z,100015.53
2023-05-09T11:26:51.858Z,100022.63
2023-05-09T11:28:03.357Z,100026.88
2023-05-09T11:29:07.741Z,100021.13
2023-05-09T11:30:19.194Z,100017.78
2023-05-09T11:31:23.362Z,100010.59
2023-05-09T11:32:41.456Z,100012.88
2023-05-09T11:33:55.583Z,100020.81
2023-05-09T11:35:15.530Z,100008.44
2023-05-09T11:36:34.017Z,100008.88
2023-05-09T11:38:04.194Z,99999.44
2023-05-09T11:39:11.526Z,100009.53
2023-05-09T11:40:23.117Z,100007.78
2023-05-09T11:41:28.702Z,100001.28
2023-05-09T11:42:33.208Z,100008.09
2023-05-09T11:43:39.173Z,100003.00
2023-05-09T11:44:43.546Z,100013.19
2023-05-09T11:45:57.856Z,100002.13
2023-05-09T11:47:05.552Z,99995.63
2023-05-09T11:48:26.595Z,99988.00
2023-05-09T11:49:35.366Z,99992.75
2023-05-09T11:50:41.291Z,99999.44
2023-05-09T11:51:45.490Z,99996.50
2023-05-09T11:52:50.285Z,99993.69
2023-05-09T11:53:54.276Z,99988.84
2023-05-09T11:54:59.973Z,99991.53
2023-05-09T11:56:06.541Z,99984.59
2023-05-09T11:57:11.294Z,99979.78
2023-05-09T11:58:18.024Z,99989.84
2023-05-09T11:59:21.987Z,99982.88
2023-05-09T12:00:27.099Z,99984.00
2023-05-09T12:01:32.098Z,99976.66
2023-05-09T12:02:37.648Z,99975.38
2023-05-09T12:03:48.218Z,99979.34
2023-05-09T12:04:57.270Z,99973.88
2023-05-09T12:06:04.445Z,99963.13
2023-05-09T12:07:13.067Z,99976.13
2023-05-09T12:08:17.669Z,99979.25
2023-05-09T12:09:22.537Z,99971.75
2023-05-09T12:10:27.075Z,99974.72
2023-05-09T12:11:35.206Z,99970.50
2023-05-09T12:12:51.183Z,99973.41
2023-05-09T12:13:57.022Z,99967.88
2023-05-09T12:15:09.002Z,99968.75
2023-05-09T12:16:13.210Z,99960.44
2023-05-09T12:17:17.300Z,99951.78
2023-05-09T12:18:22.141Z,99962.00
2023-05-09T12:19:28.239Z,99944.50
2023-05-09T12:20:53.135Z,99959.47
2023-05-09T12:22:00.574Z,99961.72
2023-05-09T12:23:04.395Z,99956.03
2023-05-09T12:24:08.771Z,99955.16
2023-05-09T12:25:16.821Z,99954.19
2023-05-09T12:26:23.268Z,99946.03
2023-05-09T12:27:29.285Z,99944.19
2023-05-09T12:28:34.915Z,99948.38
2023-05-09T12:29:40.693Z,99952.56
2023-05-09T12:30:45.827Z,99948.56
2023-05-09T12:31:51.253Z,99945.03
2023-05-09T12:32:56.575Z,99948.25
2023-05-09T12:34:01.879Z,99951.91
2023-05-09T12:35:08.896Z,99945.44
2023-05-09T12:36:14.734Z,99935.16
2023-05-09T12:37:20.264Z,99925.72
2023-05-09T12:38:25.925Z,99936.81
2023-05-09T12:39:30.647Z,99939.91
2023-05-09T12:40:36.237Z,99940.75
2023-05-09T12:42:00.588Z,99933.16
2023-05-09T12:43:07.503Z,99926.41
2023-05-09T12:44:25.507Z,99935.03
2023-05-09T12:45:34.019Z,99921.59
2023-05-09T12:46:38.612Z,99930.47
2023-05-09T12:47:42.983Z,99922.94